Terminal Aerodrome Forecast
Issued by NWS Sterling, VA

Current Version | Previous Version | Graphics & Text | Print | Product List | Glossary On
Versions: 1 2 3 4 5 6 7 8 9 10 11 12 13 14 15 16 17 18 19
000
FTUS41 KLWX 292336
TAFMRB
TAF
KMRB 292336Z 3000/3024 18005KT P6SM BKN040
     FM300600 18005KT 3SM BR SCT070
     FM301200 20006KT 4SM BR SCT120
     FM301300 21006KT 6SM BR BKN060
     FM301400 22006KT P6SM BKN060
     FM301800 30010KT P6SM BKN050
     FM301900 31011KT P6SM SCT070=

USA.gov is the U.S. government's official web portal to all federal, state and local government web resources and services.